sensor_id;sensor_type;location;lat;lon;timestamp;temperature;humidity
13436;DHT22;6790;49.520;8.504;2023-05-09T00:00:27;14.20;99.90
13436;DHT22;6790;49.520;8.504;2023-05-09T00:02:52;14.10;99.90
13436;DHT22;6790;49.520;8.504;2023-05-09T00:05:19;14.20;99.90
13436;DHT22;6790;49.520;8.504;2023-05-09T00:07:46;14.20;99.90
13436;DHT22;6790;49.520;8.504;2023-05-09T00:10:12;14.30;99.90
13436;DHT22;6790;49.520;8.504;2023-05-09T00:12:38;14.20;99.90
13436;DHT22;6790;49.520;8.504;2023-05-09T00:15:04;14.30;99.90
13436;DHT22;6790;49.520;8.504;2023-05-09T00:17:33;14.30;99.90
13436;DHT22;6790;49.520;8.504;2023-05-09T00:20:00;14.30;99.90
13436;DHT22;6790;49.520;8.504;2023-05-09T00:22:29;14.30;99.90
13436;DHT22;6790;49.520;8.504;2023-05-09T00:24:55;14.30;99.90
13436;DHT22;6790;49.520;8.504;2023-05-09T00:27:20;14.30;99.90
13436;DHT22;6790;49.520;8.504;2023-05-09T00:29:46;14.30;99.90
13436;DHT22;6790;49.520;8.504;2023-05-09T00:32:12;14.40;99.90
13436;DHT22;6790;49.520;8.504;2023-05-09T00:34:37;14.40;99.90
13436;DHT22;6790;49.520;8.504;2023-05-09T00:37:03;14.30;99.90
13436;DHT22;6790;49.520;8.504;2023-05-09T00:39:29;14.30;99.90
13436;DHT22;6790;49.520;8.504;2023-05-09T00:41:55;14.20;99.90
13436;DHT22;6790;49.520;8.504;2023-05-09T00:44:21;14.20;99.90
13436;DHT22;6790;49.520;8.504;2023-05-09T00:46:47;14.30;99.90
13436;DHT22;6790;49.520;8.504;2023-05-09T00:49:13;14.30;99.90
13436;DHT22;6790;49.520;8.504;2023-05-09T00:51:42;14.40;99.90
13436;DHT22;6790;49.520;8.504;2023-05-09T00:54:07;14.40;99.90
13436;DHT22;6790;49.520;8.504;2023-05-09T00:56:33;14.20;99.90
13436;DHT22;6790;49.520;8.504;2023-05-09T00:58:59;14.30;99.90
13436;DHT22;6790;49.520;8.504;2023-05-09T01:01:25;14.20;99.90
13436;DHT22;6790;49.520;8.504;2023-05-09T01:03:51;14.30;99.90
13436;DHT22;6790;49.520;8.504;2023-05-09T01:06:41;14.30;99.90
13436;DHT22;6790;49.520;8.504;2023-05-09T01:12:22;14.30;99.90
13436;DHT22;6790;49.520;8.504;2023-05-09T01:18:14;14.40;99.90
13436;DHT22;6790;49.520;8.504;2023-05-09T01:21:07;14.20;99.90
13436;DHT22;6790;49.520;8.504;2023-05-09T01:27:20;14.00;99.90
13436;DHT22;6790;49.520;8.504;2023-05-09T01:29:57;13.80;99.90
13436;DHT22;6790;49.520;8.504;2023-05-09T01:32:26;13.80;99.90
13436;DHT22;6790;49.520;8.504;2023-05-09T01:34:55;13.70;99.90
13436;DHT22;6790;49.520;8.504;2023-05-09T01:37:27;13.70;99.90
13436;DHT22;6790;49.520;8.504;2023-05-09T01:39:59;13.50;99.90
13436;DHT22;6790;49.520;8.504;2023-05-09T01:42:33;13.50;99.90
13436;DHT22;6790;49.520;8.504;2023-05-09T01:45:07;13.30;99.90
13436;DHT22;6790;49.520;8.504;2023-05-09T01:47:34;13.30;99.90
13436;DHT22;6790;49.520;8.504;2023-05-09T01:50:02;13.30;99.90
13436;DHT22;6790;49.520;8.504;2023-05-09T01:52:31;13.10;99.90
13436;DHT22;6790;49.520;8.504;2023-05-09T01:54:59;13.30;99.90
13436;DHT22;6790;49.520;8.504;2023-05-09T01:57:26;13.20;99.90
13436;DHT22;6790;49.520;8.504;2023-05-09T01:59:53;13.10;99.90
13436;DHT22;6790;49.520;8.504;2023-05-09T02:02:19;13.10;99.90
13436;DHT22;6790;49.520;8.504;2023-05-09T02:04:46;13.10;99.90
13436;DHT22;6790;49.520;8.504;2023-05-09T02:07:12;13.00;99.90
13436;DHT22;6790;49.520;8.504;2023-05-09T02:09:38;12.90;99.90
13436;DHT22;6790;49.520;8.504;2023-05-09T02:12:04;12.80;99.90
13436;DHT22;6790;49.520;8.504;2023-05-09T02:14:30;12.90;99.90
13436;DHT22;6790;49.520;8.504;2023-05-09T02:16:56;12.90;99.90
13436;DHT22;6790;49.520;8.504;2023-05-09T02:19:21;12.80;99.90
13436;DHT22;6790;49.520;8.504;2023-05-09T02:21:47;12.80;99.90
13436;DHT22;6790;49.520;8.504;2023-05-09T02:24:13;12.80;99.90
13436;DHT22;6790;49.520;8.504;2023-05-09T02:26:39;12.60;99.90
13436;DHT22;6790;49.520;8.504;2023-05-09T02:29:06;12.60;99.90
13436;DHT22;6790;49.520;8.504;2023-05-09T02:31:32;12.70;99.90
13436;DHT22;6790;49.520;8.504;2023-05-09T02:33:59;12.70;99.90
13436;DHT22;6790;49.520;8.504;2023-05-09T02:36:27;12.50;99.90
13436;DHT22;6790;49.520;8.504;2023-05-09T02:38:53;12.60;99.90
13436;DHT22;6790;49.520;8.504;2023-05-09T02:41:19;12.60;99.90
13436;DHT22;6790;49.520;8.504;2023-05-09T02:43:44;12.60;99.90
13436;DHT22;6790;49.520;8.504;2023-05-09T02:46:10;12.50;99.90
13436;DHT22;6790;49.520;8.504;2023-05-09T02:48:36;12.40;99.90
13436;DHT22;6790;49.520;8.504;2023-05-09T02:51:01;12.50;99.90
13436;DHT22;6790;49.520;8.504;2023-05-09T02:53:27;12.50;99.90
13436;DHT22;6790;49.520;8.504;2023-05-09T02:55:53;12.50;99.90
13436;DHT22;6790;49.520;8.504;2023-05-09T02:58:19;12.30;99.90
13436;DHT22;6790;49.520;8.504;2023-05-09T03:00:45;12.40;99.90
13436;DHT22;6790;49.520;8.504;2023-05-09T03:03:11;12.40;99.90
13436;DHT22;6790;49.520;8.504;2023-05-09T03:05:37;12.30;99.90
13436;DHT22;6790;49.520;8.504;2023-05-09T03:08:02;12.20;99.90
13436;DHT22;6790;49.520;8.504;2023-05-09T03:10:28;12.10;99.90
13436;DHT22;6790;49.520;8.504;2023-05-09T03:12:54;12.10;99.90
13436;DHT22;6790;49.520;8.504;2023-05-09T03:15:20;12.20;99.90
13436;DHT22;6790;49.520;8.504;2023-05-09T03:17:46;12.20;99.90
13436;DHT22;6790;49.520;8.504;2023-05-09T03:20:11;12.10;99.90
13436;DHT22;6790;49.520;8.504;2023-05-09T03:22:38;12.20;99.90
13436;DHT22;6790;49.520;8.504;2023-05-09T03:25:03;12.20;99.90
13436;DHT22;6790;49.520;8.504;2023-05-09T03:27:30;12.20;99.90
13436;DHT22;6790;49.520;8.504;2023-05-09T03:29:56;12.30;99.90
13436;DHT22;6790;49.520;8.504;2023-05-09T03:32:22;12.40;99.90
13436;DHT22;6790;49.520;8.504;2023-05-09T03:34:47;12.50;99.90
13436;DHT22;6790;49.520;8.504;2023-05-09T03:37:13;12.60;99.90
13436;DHT22;6790;49.520;8.504;2023-05-09T03:39:39;12.80;99.90
13436;DHT22;6790;49.520;8.504;2023-05-09T03:42:05;12.80;99.90
13436;DHT22;6790;49.520;8.504;2023-05-09T03:44:30;12.90;99.90
13436;DHT22;6790;49.520;8.504;2023-05-09T03:46:56;12.90;99.90
13436;DHT22;6790;49.520;8.504;2023-05-09T03:49:22;13.10;99.90
13436;DHT22;6790;49.520;8.504;2023-05-09T03:51:47;13.10;99.90
13436;DHT22;6790;49.520;8.504;2023-05-09T03:54:13;13.10;99.90
13436;DHT22;6790;49.520;8.504;2023-05-09T03:56:39;13.10;99.90
13436;DHT22;6790;49.520;8.504;2023-05-09T03:59:04;13.10;99.90
13436;DHT22;6790;49.520;8.504;2023-05-09T04:01:30;13.30;99.90
13436;DHT22;6790;49.520;8.504;2023-05-09T04:03:56;13.40;99.90
13436;DHT22;6790;49.520;8.504;2023-05-09T04:06:22;13.30;99.90
13436;DHT22;6790;49.520;8.504;2023-05-09T04:08:48;13.40;99.90
13436;DHT22;6790;49.520;8.504;2023-05-09T04:11:14;13.30;99.90
13436;DHT22;6790;49.520;8.504;2023-05-09T04:13:40;13.50;99.90
13436;DHT22;6790;49.520;8.504;2023-05-09T04:16:05;13.40;99.90
13436;DHT22;6790;49.520;8.504;2023-05-09T04:18:31;13.50;99.90
13436;DHT22;6790;49.520;8.504;2023-05-09T04:20:57;13.60;99.90
13436;DHT22;6790;49.520;8.504;2023-05-09T04:23:22;13.70;99.90
13436;DHT22;6790;49.520;8.504;2023-05-09T04:25:48;13.60;99.90
13436;DHT22;6790;49.520;8.504;2023-05-09T04:28:16;13.80;99.90
13436;DHT22;6790;49.520;8.504;2023-05-09T04:30:42;13.80;99.90
13436;DHT22;6790;49.520;8.504;2023-05-09T04:33:07;14.00;99.90
13436;DHT22;6790;49.520;8.504;2023-05-09T04:35:33;13.90;99.90
13436;DHT22;6790;49.520;8.504;2023-05-09T04:37:59;14.00;99.90
13436;DHT22;6790;49.520;8.504;2023-05-09T04:40:25;13.90;99.90
13436;DHT22;6790;49.520;8.504;2023-05-09T04:42:50;14.00;99.90
13436;DHT22;6790;49.520;8.504;2023-05-09T04:45:16;14.00;99.90
13436;DHT22;6790;49.520;8.504;2023-05-09T04:47:42;14.10;99.90
13436;DHT22;6790;49.520;8.504;2023-05-09T04:50:08;14.20;99.90
13436;DHT22;6790;49.520;8.504;2023-05-09T04:52:34;14.10;99.90
13436;DHT22;6790;49.520;8.504;2023-05-09T04:55:00;14.20;99.90
13436;DHT22;6790;49.520;8.504;2023-05-09T04:57:25;14.30;99.90
13436;DHT22;6790;49.520;8.504;2023-05-09T04:59:51;14.30;99.90
13436;DHT22;6790;49.520;8.504;2023-05-09T05:02:17;14.30;99.90
13436;DHT22;6790;49.520;8.504;2023-05-09T05:04:43;14.30;99.90
13436;DHT22;6790;49.520;8.504;2023-05-09T05:07:08;14.40;99.90
13436;DHT22;6790;49.520;8.504;2023-05-09T05:09:34;14.50;99.90
13436;DHT22;6790;49.520;8.504;2023-05-09T05:12:00;14.40;99.90
13436;DHT22;6790;49.520;8.504;2023-05-09T05:14:25;14.50;99.90
13436;DHT22;6790;49.520;8.504;2023-05-09T05:16:51;14.50;99.90
13436;DHT22;6790;49.520;8.504;2023-05-09T05:19:17;14.70;99.90
13436;DHT22;6790;49.520;8.504;2023-05-09T05:21:42;14.90;99.90
13436;DHT22;6790;49.520;8.504;2023-05-09T05:24:08;14.80;99.90
13436;DHT22;6790;49.520;8.504;2023-05-09T05:26:34;15.00;99.90
13436;DHT22;6790;49.520;8.504;2023-05-09T05:29:00;15.10;99.90
13436;DHT22;6790;49.520;8.504;2023-05-09T05:31:28;15.20;99.90
13436;DHT22;6790;49.520;8.504;2023-05-09T05:33:54;15.30;99.90
13436;DHT22;6790;49.520;8.504;2023-05-09T05:36:19;15.30;99.90
13436;DHT22;6790;49.520;8.504;2023-05-09T05:38:45;15.30;99.90
13436;DHT22;6790;49.520;8.504;2023-05-09T05:41:11;15.40;99.90
13436;DHT22;6790;49.520;8.504;2023-05-09T05:43:39;15.40;99.90
13436;DHT22;6790;49.520;8.504;2023-05-09T05:46:05;15.60;99.90
13436;DHT22;6790;49.520;8.504;2023-05-09T05:48:33;15.70;99.90
13436;DHT22;6790;49.520;8.504;2023-05-09T05:51:02;15.80;99.90
13436;DHT22;6790;49.520;8.504;2023-05-09T05:53:28;15.70;99.90
13436;DHT22;6790;49.520;8.504;2023-05-09T05:55:59;15.90;99.90
13436;DHT22;6790;49.520;8.504;2023-05-09T05:58:28;16.00;99.90
13436;DHT22;6790;49.520;8.504;2023-05-09T06:00:54;16.10;99.90
13436;DHT22;6790;49.520;8.504;2023-05-09T06:03:19;16.10;99.90
13436;DHT22;6790;49.520;8.504;2023-05-09T06:05:46;16.20;99.90
13436;DHT22;6790;49.520;8.504;2023-05-09T06:08:14;16.20;99.90
13436;DHT22;6790;49.520;8.504;2023-05-09T06:10:47;16.20;99.90
13436;DHT22;6790;49.520;8.504;2023-05-09T06:13:13;16.20;99.90
13436;DHT22;6790;49.520;8.504;2023-05-09T06:15:39;16.30;99.90
13436;DHT22;6790;49.520;8.504;2023-05-09T06:18:04;16.30;99.90
13436;DHT22;6790;49.520;8.504;2023-05-09T06:20:30;16.40;99.90
13436;DHT22;6790;49.520;8.504;2023-05-09T06:22:56;16.40;99.90
13436;DHT22;6790;49.520;8.504;2023-05-09T06:25:21;16.40;99.90
13436;DHT22;6790;49.520;8.504;2023-05-09T06:27:47;16.40;99.90
13436;DHT22;6790;49.520;8.504;2023-05-09T06:30:13;16.40;99.90
13436;DHT22;6790;49.520;8.504;2023-05-09T06:32:39;16.30;99.90
13436;DHT22;6790;49.520;8.504;2023-05-09T06:35:05;16.30;99.90
13436;DHT22;6790;49.520;8.504;2023-05-09T06:37:33;16.30;99.90
13436;DHT22;6790;49.520;8.504;2023-05-09T06:39:59;16.30;99.90
13436;DHT22;6790;49.520;8.504;2023-05-09T06:42:25;16.50;99.90
13436;DHT22;6790;49.520;8.504;2023-05-09T06:44:51;16.60;99.90
13436;DHT22;6790;49.520;8.504;2023-05-09T06:47:16;16.50;99.90
13436;DHT22;6790;49.520;8.504;2023-05-09T06:49:42;16.50;99.90
13436;DHT22;6790;49.520;8.504;2023-05-09T06:52:08;16.50;99.90
13436;DHT22;6790;49.520;8.504;2023-05-09T06:54:33;16.50;99.90
13436;DHT22;6790;49.520;8.504;2023-05-09T06:56:59;16.50;99.90
13436;DHT22;6790;49.520;8.504;2023-05-09T06:59:25;16.60;99.90
13436;DHT22;6790;49.520;8.504;2023-05-09T07:01:51;16.60;99.90
13436;DHT22;6790;49.520;8.504;2023-05-09T07:04:17;16.60;99.90
13436;DHT22;6790;49.520;8.504;2023-05-09T07:06:42;16.60;99.90
13436;DHT22;6790;49.520;8.504;2023-05-09T07:09:08;16.70;99.90
13436;DHT22;6790;49.520;8.504;2023-05-09T07:11:35;16.60;99.90
13436;DHT22;6790;49.520;8.504;2023-05-09T07:14:02;16.60;99.90
13436;DHT22;6790;49.520;8.504;2023-05-09T07:16:28;16.70;99.90
13436;DHT22;6790;49.520;8.504;2023-05-09T07:18:54;16.70;99.90
13436;DHT22;6790;49.520;8.504;2023-05-09T07:21:20;16.70;99.90
13436;DHT22;6790;49.520;8.504;2023-05-09T07:23:46;16.70;99.90
13436;DHT22;6790;49.520;8.504;2023-05-09T07:26:11;16.80;99.90
13436;DHT22;6790;49.520;8.504;2023-05-09T07:28:37;16.80;99.90
13436;DHT22;6790;49.520;8.504;2023-05-09T07:31:03;16.90;99.90
13436;DHT22;6790;49.520;8.504;2023-05-09T07:33:30;17.00;99.90
13436;DHT22;6790;49.520;8.504;2023-05-09T07:35:58;17.30;99.90
13436;DHT22;6790;49.520;8.504;2023-05-09T07:38:24;17.30;99.90
13436;DHT22;6790;49.520;8.504;2023-05-09T07:40:49;17.60;99.90
13436;DHT22;6790;49.520;8.504;2023-05-09T07:43:17;17.90;99.90
13436;DHT22;6790;49.520;8.504;2023-05-09T07:45:43;17.90;99.90
13436;DHT22;6790;49.520;8.504;2023-05-09T07:48:09;17.90;99.90
13436;DHT22;6790;49.520;8.504;2023-05-09T07:50:34;18.00;99.90
13436;DHT22;6790;49.520;8.504;2023-05-09T07:53:00;18.00;99.90
13436;DHT22;6790;49.520;8.504;2023-05-09T07:55:26;18.00;99.90
13436;DHT22;6790;49.520;8.504;2023-05-09T07:57:52;18.00;99.90
13436;DHT22;6790;49.520;8.504;2023-05-09T08:00:17;18.10;99.90
13436;DHT22;6790;49.520;8.504;2023-05-09T08:02:50;18.30;99.90
13436;DHT22;6790;49.520;8.504;2023-05-09T08:05:16;18.10;99.90
13436;DHT22;6790;49.520;8.504;2023-05-09T08:07:42;18.30;99.90
13436;DHT22;6790;49.520;8.504;2023-05-09T08:10:08;18.50;99.90
13436;DHT22;6790;49.520;8.504;2023-05-09T08:12:34;18.30;99.90
13436;DHT22;6790;49.520;8.504;2023-05-09T08:15:00;18.30;99.90
13436;DHT22;6790;49.520;8.504;2023-05-09T08:17:26;18.30;99.90
13436;DHT22;6790;49.520;8.504;2023-05-09T08:19:51;18.20;99.90
13436;DHT22;6790;49.520;8.504;2023-05-09T08:22:18;18.20;99.90
13436;DHT22;6790;49.520;8.504;2023-05-09T08:24:44;18.60;99.90
13436;DHT22;6790;49.520;8.504;2023-05-09T08:27:11;18.90;99.90
13436;DHT22;6790;49.520;8.504;2023-05-09T08:29:41;18.80;99.90
13436;DHT22;6790;49.520;8.504;2023-05-09T08:32:08;18.90;99.90
13436;DHT22;6790;49.520;8.504;2023-05-09T08:34:34;18.90;99.90
13436;DHT22;6790;49.520;8.504;2023-05-09T08:37:01;18.70;99.90
13436;DHT22;6790;49.520;8.504;2023-05-09T08:39:28;18.60;99.90
13436;DHT22;6790;49.520;8.504;2023-05-09T08:41:58;18.50;99.90
13436;DHT22;6790;49.520;8.504;2023-05-09T08:44:25;18.50;99.90
13436;DHT22;6790;49.520;8.504;2023-05-09T08:46:55;18.40;99.90
13436;DHT22;6790;49.520;8.504;2023-05-09T08:49:24;18.30;99.90
13436;DHT22;6790;49.520;8.504;2023-05-09T08:51:50;18.40;99.90
13436;DHT22;6790;49.520;8.504;2023-05-09T08:54:17;18.40;99.90
13436;DHT22;6790;49.520;8.504;2023-05-09T08:56:43;18.60;99.90
13436;DHT22;6790;49.520;8.504;2023-05-09T08:59:09;18.70;99.90
13436;DHT22;6790;49.520;8.504;2023-05-09T09:01:35;18.80;99.90
13436;DHT22;6790;49.520;8.504;2023-05-09T09:04:08;18.90;99.90
13436;DHT22;6790;49.520;8.504;2023-05-09T09:06:34;19.00;99.90
13436;DHT22;6790;49.520;8.504;2023-05-09T09:09:01;19.10;99.90
13436;DHT22;6790;49.520;8.504;2023-05-09T09:11:30;19.00;99.90
13436;DHT22;6790;49.520;8.504;2023-05-09T09:14:00;19.10;99.90
13436;DHT22;6790;49.520;8.504;2023-05-09T09:16:37;18.80;99.90
13436;DHT22;6790;49.520;8.504;2023-05-09T09:19:09;18.70;99.90
13436;DHT22;6790;49.520;8.504;2023-05-09T09:21:38;18.70;99.90
13436;DHT22;6790;49.520;8.504;2023-05-09T09:24:07;18.70;99.90
13436;DHT22;6790;49.520;8.504;2023-05-09T09:26:33;18.90;99.90
13436;DHT22;6790;49.520;8.504;2023-05-09T09:28:59;19.10;99.90
13436;DHT22;6790;49.520;8.504;2023-05-09T09:31:26;18.90;99.90
13436;DHT22;6790;49.520;8.504;2023-05-09T09:34:00;18.80;99.90
13436;DHT22;6790;49.520;8.504;2023-05-09T09:36:27;18.60;99.90
13436;DHT22;6790;49.520;8.504;2023-05-09T09:39:02;18.60;99.90
13436;DHT22;6790;49.520;8.504;2023-05-09T09:41:36;18.70;99.90
13436;DHT22;6790;49.520;8.504;2023-05-09T09:46:54;18.80;99.90
13436;DHT22;6790;49.520;8.504;2023-05-09T09:49:23;18.90;99.90
13436;DHT22;6790;49.520;8.504;2023-05-09T09:51:54;18.80;99.90
13436;DHT22;6790;49.520;8.504;2023-05-09T09:54:21;18.80;99.90
13436;DHT22;6790;49.520;8.504;2023-05-09T09:56:48;18.90;99.90
13436;DHT22;6790;49.520;8.504;2023-05-09T09:59:19;19.10;99.90
13436;DHT22;6790;49.520;8.504;2023-05-09T10:02:05;18.90;99.90
13436;DHT22;6790;49.520;8.504;2023-05-09T10:04:37;19.00;99.90
13436;DHT22;6790;49.520;8.504;2023-05-09T10:07:05;18.90;99.90
13436;DHT22;6790;49.520;8.504;2023-05-09T10:09:33;18.90;99.90
13436;DHT22;6790;49.520;8.504;2023-05-09T10:12:02;19.10;99.90
13436;DHT22;6790;49.520;8.504;2023-05-09T10:14:31;19.30;99.90
13436;DHT22;6790;49.520;8.504;2023-05-09T10:17:00;19.50;99.90
13436;DHT22;6790;49.520;8.504;2023-05-09T10:19:28;19.80;99.90
13436;DHT22;6790;49.520;8.504;2023-05-09T10:22:14;20.00;99.90
13436;DHT22;6790;49.520;8.504;2023-05-09T10:27:35;20.50;99.90
13436;DHT22;6790;49.520;8.504;2023-05-09T10:30:01;20.50;99.90
13436;DHT22;6790;49.520;8.504;2023-05-09T10:32:40;20.80;99.90
13436;DHT22;6790;49.520;8.504;2023-05-09T10:35:09;20.90;99.90
13436;DHT22;6790;49.520;8.504;2023-05-09T10:37:36;20.70;99.90
13436;DHT22;6790;49.520;8.504;2023-05-09T10:40:03;20.90;99.90
13436;DHT22;6790;49.520;8.504;2023-05-09T10:42:30;21.00;99.90
13436;DHT22;6790;49.520;8.504;2023-05-09T10:44:56;21.10;99.90
13436;DHT22;6790;49.520;8.504;2023-05-09T10:47:26;21.20;99.90
13436;DHT22;6790;49.520;8.504;2023-05-09T10:49:52;21.50;99.90
13436;DHT22;6790;49.520;8.504;2023-05-09T10:52:22;21.50;99.90
13436;DHT22;6790;49.520;8.504;2023-05-09T10:55:01;21.10;99.90
13436;DHT22;6790;49.520;8.504;2023-05-09T10:57:30;20.90;99.90
13436;DHT22;6790;49.520;8.504;2023-05-09T10:59:57;20.70;99.90
13436;DHT22;6790;49.520;8.504;2023-05-09T11:02:23;20.30;99.90
13436;DHT22;6790;49.520;8.504;2023-05-09T11:05:17;20.20;99.90
13436;DHT22;6790;49.520;8.504;2023-05-09T11:07:44;20.60;99.90
13436;DHT22;6790;49.520;8.504;2023-05-09T11:10:17;21.10;99.90
13436;DHT22;6790;49.520;8.504;2023-05-09T11:12:56;21.30;99.90
13436;DHT22;6790;49.520;8.504;2023-05-09T11:15:23;21.70;99.90
13436;DHT22;6790;49.520;8.504;2023-05-09T11:18:24;21.70;99.90
13436;DHT22;6790;49.520;8.504;2023-05-09T11:20:50;21.20;99.90
13436;DHT22;6790;49.520;8.504;2023-05-09T11:23:18;21.30;99.90
13436;DHT22;6790;49.520;8.504;2023-05-09T11:25:46;20.90;99.90
13436;DHT22;6790;49.520;8.504;2023-05-09T11:28:35;20.90;99.90
13436;DHT22;6790;49.520;8.504;2023-05-09T11:33:35;20.90;99.90
13436;DHT22;6790;49.520;8.504;2023-05-09T11:39:02;20.80;99.90
13436;DHT22;6790;49.520;8.504;2023-05-09T11:41:47;20.80;99.90
13436;DHT22;6790;49.520;8.504;2023-05-09T11:44:19;21.00;99.90
13436;DHT22;6790;49.520;8.504;2023-05-09T11:46:46;21.10;99.90
13436;DHT22;6790;49.520;8.504;2023-05-09T11:49:13;21.20;99.90
13436;DHT22;6790;49.520;8.504;2023-05-09T11:51:39;21.30;99.90
13436;DHT22;6790;49.520;8.504;2023-05-09T11:54:07;21.30;99.90
13436;DHT22;6790;49.520;8.504;2023-05-09T11:56:38;21.00;99.90
13436;DHT22;6790;49.520;8.504;2023-05-09T11:59:06;21.00;99.90
13436;DHT22;6790;49.520;8.504;2023-05-09T12:01:32;21.00;99.90
13436;DHT22;6790;49.520;8.504;2023-05-09T12:03:58;20.90;99.90
13436;DHT22;6790;49.520;8.504;2023-05-09T12:06:24;20.70;99.90
13436;DHT22;6790;49.520;8.504;2023-05-09T12:08:50;20.60;99.90
13436;DHT22;6790;49.520;8.504;2023-05-09T12:11:17;20.60;99.90
13436;DHT22;6790;49.520;8.504;2023-05-09T12:13:44;20.60;99.90
13436;DHT22;6790;49.520;8.504;2023-05-09T12:16:11;20.80;99.90
13436;DHT22;6790;49.520;8.504;2023-05-09T12:18:37;20.90;99.90
13436;DHT22;6790;49.520;8.504;2023-05-09T12:21:02;20.90;99.90
13436;DHT22;6790;49.520;8.504;2023-05-09T12:23:33;20.90;99.90
13436;DHT22;6790;49.520;8.504;2023-05-09T12:25:59;21.10;99.90
13436;DHT22;6790;49.520;8.504;2023-05-09T12:28:25;21.50;99.90
13436;DHT22;6790;49.520;8.504;2023-05-09T12:30:52;21.80;99.90
13436;DHT22;6790;49.520;8.504;2023-05-09T12:33:21;22.10;99.90
13436;DHT22;6790;49.520;8.504;2023-05-09T12:35:48;22.50;99.90
13436;DHT22;6790;49.520;8.504;2023-05-09T12:38:21;22.60;99.90
13436;DHT22;6790;49.520;8.504;2023-05-09T12:40:48;22.40;99.90
13436;DHT22;6790;49.520;8.504;2023-05-09T12:43:16;22.30;99.90
13436;DHT22;6790;49.520;8.504;2023-05-09T12:45:41;21.90;99.90
13436;DHT22;6790;49.520;8.504;2023-05-09T12:48:07;21.70;99.90
13436;DHT22;6790;49.520;8.504;2023-05-09T12:50:34;21.60;99.90
13436;DHT22;6790;49.520;8.504;2023-05-09T12:53:01;21.70;99.90
13436;DHT22;6790;49.520;8.504;2023-05-09T12:55:29;21.60;99.90
13436;DHT22;6790;49.520;8.504;2023-05-09T12:58:02;21.60;99.90
13436;DHT22;6790;49.520;8.504;2023-05-09T13:00:35;21.80;99.90
13436;DHT22;6790;49.520;8.504;2023-05-09T13:03:25;21.70;99.90
13436;DHT22;6790;49.520;8.504;2023-05-09T13:05:58;21.80;99.90
13436;DHT22;6790;49.520;8.504;2023-05-09T13:08:25;21.90;99.90
13436;DHT22;6790;49.520;8.504;2023-05-09T13:10:51;21.70;99.90
13436;DHT22;6790;49.520;8.504;2023-05-09T13:13:18;21.90;99.90
13436;DHT22;6790;49.520;8.504;2023-05-09T13:15:44;21.70;99.90
13436;DHT22;6790;49.520;8.504;2023-05-09T13:18:11;21.90;99.90
13436;DHT22;6790;49.520;8.504;2023-05-09T13:20:37;21.70;99.90
13436;DHT22;6790;49.520;8.504;2023-05-09T13:23:03;21.80;99.90
13436;DHT22;6790;49.520;8.504;2023-05-09T13:25:29;21.60;99.90
13436;DHT22;6790;49.520;8.504;2023-05-09T13:27:55;21.60;99.90
13436;DHT22;6790;49.520;8.504;2023-05-09T13:30:20;21.70;99.90
13436;DHT22;6790;49.520;8.504;2023-05-09T13:32:46;21.90;99.90
13436;DHT22;6790;49.520;8.504;2023-05-09T13:35:12;22.00;99.90
13436;DHT22;6790;49.520;8.504;2023-05-09T13:37:38;22.00;99.90
13436;DHT22;6790;49.520;8.504;2023-05-09T13:40:04;21.90;99.90
13436;DHT22;6790;49.520;8.504;2023-05-09T13:42:32;21.90;99.90
13436;DHT22;6790;49.520;8.504;2023-05-09T13:44:58;21.80;99.90
13436;DHT22;6790;49.520;8.504;2023-05-09T13:47:24;21.70;99.90
13436;DHT22;6790;49.520;8.504;2023-05-09T13:49:50;21.80;99.90
13436;DHT22;6790;49.520;8.504;2023-05-09T13:52:16;21.70;99.90
13436;DHT22;6790;49.520;8.504;2023-05-09T13:54:42;21.80;99.90
13436;DHT22;6790;49.520;8.504;2023-05-09T13:57:08;21.90;99.90
13436;DHT22;6790;49.520;8.504;2023-05-09T13:59:34;21.90;99.90
13436;DHT22;6790;49.520;8.504;2023-05-09T14:02:00;22.00;99.90
13436;DHT22;6790;49.520;8.504;2023-05-09T14:04:26;22.00;99.90
13436;DHT22;6790;49.520;8.504;2023-05-09T14:06:53;22.00;99.90
13436;DHT22;6790;49.520;8.504;2023-05-09T14:09:23;21.90;99.90
13436;DHT22;6790;49.520;8.504;2023-05-09T14:11:50;21.70;99.90
13436;DHT22;6790;49.520;8.504;2023-05-09T14:14:20;21.60;99.90
13436;DHT22;6790;49.520;8.504;2023-05-09T14:16:46;21.60;99.90
13436;DHT22;6790;49.520;8.504;2023-05-09T14:19:12;21.40;99.90
13436;DHT22;6790;49.520;8.504;2023-05-09T14:21:42;21.40;99.90
13436;DHT22;6790;49.520;8.504;2023-05-09T14:24:09;21.40;99.90
13436;DHT22;6790;49.520;8.504;2023-05-09T14:26:36;21.30;99.90
13436;DHT22;6790;49.520;8.504;2023-05-09T14:29:03;21.20;99.90
13436;DHT22;6790;49.520;8.504;2023-05-09T14:31:29;21.20;99.90
13436;DHT22;6790;49.520;8.504;2023-05-09T14:33:55;21.20;99.90
13436;DHT22;6790;49.520;8.504;2023-05-09T14:36:21;21.10;99.90
13436;DHT22;6790;49.520;8.504;2023-05-09T14:38:47;21.10;99.90
13436;DHT22;6790;49.520;8.504;2023-05-09T14:41:13;21.00;99.90
13436;DHT22;6790;49.520;8.504;2023-05-09T14:43:39;21.00;99.90
13436;DHT22;6790;49.520;8.504;2023-05-09T14:46:05;21.00;99.90
13436;DHT22;6790;49.520;8.504;2023-05-09T14:48:31;20.90;99.90
13436;DHT22;6790;49.520;8.504;2023-05-09T14:50:58;20.90;99.90
13436;DHT22;6790;49.520;8.504;2023-05-09T14:53:24;20.80;99.90
13436;DHT22;6790;49.520;8.504;2023-05-09T14:55:51;20.80;99.90
13436;DHT22;6790;49.520;8.504;2023-05-09T14:58:17;20.90;99.90
13436;DHT22;6790;49.520;8.504;2023-05-09T15:00:43;20.80;99.90
13436;DHT22;6790;49.520;8.504;2023-05-09T15:03:10;20.80;99.90
13436;DHT22;6790;49.520;8.504;2023-05-09T15:05:36;20.90;99.90
13436;DHT22;6790;49.520;8.504;2023-05-09T15:08:01;20.80;99.90
13436;DHT22;6790;49.520;8.504;2023-05-09T15:10:28;20.80;99.90
13436;DHT22;6790;49.520;8.504;2023-05-09T15:12:54;20.70;99.90
13436;DHT22;6790;49.520;8.504;2023-05-09T15:15:21;20.60;99.90
13436;DHT22;6790;49.520;8.504;2023-05-09T15:17:51;20.50;99.90
13436;DHT22;6790;49.520;8.504;2023-05-09T15:20:17;20.50;99.90
13436;DHT22;6790;49.520;8.504;2023-05-09T15:22:44;20.50;99.90
13436;DHT22;6790;49.520;8.504;2023-05-09T15:25:11;20.50;99.90
13436;DHT22;6790;49.520;8.504;2023-05-09T15:27:37;20.50;99.90
13436;DHT22;6790;49.520;8.504;2023-05-09T15:30:03;20.40;99.90
13436;DHT22;6790;49.520;8.504;2023-05-09T15:32:30;20.30;99.90
13436;DHT22;6790;49.520;8.504;2023-05-09T15:34:55;20.30;99.90
13436;DHT22;6790;49.520;8.504;2023-05-09T15:37:21;20.40;99.90
13436;DHT22;6790;49.520;8.504;2023-05-09T15:39:47;20.30;99.90
13436;DHT22;6790;49.520;8.504;2023-05-09T15:42:14;20.30;99.90
13436;DHT22;6790;49.520;8.504;2023-05-09T15:44:41;20.30;99.90
13436;DHT22;6790;49.520;8.504;2023-05-09T15:47:08;20.30;99.90
13436;DHT22;6790;49.520;8.504;2023-05-09T15:49:34;20.40;99.90
13436;DHT22;6790;49.520;8.504;2023-05-09T15:52:07;20.50;99.90
13436;DHT22;6790;49.520;8.504;2023-05-09T15:54:35;20.50;99.90
13436;DHT22;6790;49.520;8.504;2023-05-09T15:57:01;20.50;99.90
13436;DHT22;6790;49.520;8.504;2023-05-09T15:59:27;20.40;99.90
13436;DHT22;6790;49.520;8.504;2023-05-09T16:01:53;20.50;99.90
13436;DHT22;6790;49.520;8.504;2023-05-09T16:04:20;20.40;99.90
13436;DHT22;6790;49.520;8.504;2023-05-09T16:06:46;20.30;99.90